Frankfort, Maine
Current Conditions -  °F | °C
As of 8:53 AM on Thursday 27 Nov 2014 (Local Time) from KBGR Reporting Station
Broken Clouds Broken Clouds  
Wind Chill: 16°   Ceiling: 2800
Heat Index: 29°   Visibility: 9mi
Dew Point: 24°   Wind: 18mph
Humidity: 82%   Direction: 340°NNW
Pressure: 29.79"   Gusts: NA
Location:  44.61°N, 68.88°W
Report Text: KBGR 271353Z 34016KT 9SM SCT019 BKN028 M02/M04 A2979 RMK AO2 SNE38 SLP091 P0000 T10171044 $
Loading
Personal Weather Stations






























Interactive Weather Map New forecast layout! Learn more

10-Day Weather Forecast

Advertisements
Track Severe Weather on mobile